Flight Track Log - Related Links

Times and Time Zones

All times are in EDT time to prevent confusion due to time zone crossing. See the JZA7672 flight status page for this flight to view local times or setup timezone preferences in your user account.

Time Position Orientation Groundspeed Altitude Reporting Facility
EDT Latitude Longitude Course Direction KTS MPH feet Rate Location/Type
Fri 08:19:47 AM 45.4500 -73.7500 110° East 140 161 100  Level Montreal Center
Fri 08:24:47 AM 45.3667 -73.4333 78° East 300 345 10,900 2,100 Climbing Montreal Center
Fri 08:25:47 AM 45.3833 -73.3167 101° East 310 357 12,700 1,650 Climbing Montreal Center
Fri 08:26:47 AM 45.3667 -73.2000 81° East 310 357 14,200 1,500 Climbing Montreal Center
Fri 08:27:47 AM 45.3833 -73.0500 78° East 310 357 15,700 1,400 Climbing Montreal Center
Fri 08:28:47 AM 45.4000 -72.9333 78° East 320 368 17,000 1,300 Climbing Montreal Center
Fri 08:29:47 AM 45.4167 -72.8167 78° East 320 368 18,300 1,350 Climbing Montreal Center
Fri 08:30:47 AM 45.4333 -72.7000 101° East 310 357 19,700 1,400 Climbing Montreal Center
Fri 08:31:47 AM 45.4167 -72.5833 80° East 310 357 21,100 1,250 Climbing Montreal Center
Fri 08:32:47 AM 45.4333 -72.4500 78° East 300 345 22,200 1,050 Climbing Montreal Center
Fri 08:33:47 AM 45.4500 -72.3333 78° East 300 345 23,200 1,050 Climbing Montreal Center
Fri 08:34:47 AM 45.4667 -72.2167 101° East 300 345 24,300 900 Climbing Montreal Center
Fri 08:35:47 AM 45.4500 -72.1000 78° East 310 357 25,000 350 Climbing Montreal Center
Fri 08:36:47 AM 45.4667 -71.9833 81° East 320 368 25,000  Level Montreal Center
Fri 08:37:47 AM 45.4833 -71.8333 90° East 340 391 25,000  Level Montreal Center
Fri 08:38:47 AM 45.4833 -71.7167 90° East 340 391 25,000  Level Montreal Center
Fri 08:39:47 AM 45.4833 -71.5667 80° East 340 391 25,000  Level Montreal Center
Fri 08:40:47 AM 45.5000 -71.4333 90° East 350 403 25,000  Level Montreal Center
Fri 08:41:47 AM 45.5000 -71.2833 78° East 350 403 25,000  Level Montreal Center
Fri 08:42:47 AM 45.5167 -71.1667 81° East 340 391 25,000  Level Montreal Center
Fri 08:43:47 AM 45.5333 -71.0167 90° East 340 391 25,000  Level Montreal Center
Fri 08:44:47 AM 45.5333 -70.8667 90° East 350 403 25,000  Level Montreal Center
Fri 08:45:47 AM 45.5333 -70.7500 90° East 340 391 25,000  Level Montreal Center
Fri 08:46:47 AM 45.5333 -70.6000 72° East 330 380 25,000  Level Montreal Center
Fri 08:47:55 AM 45.5553 -70.5019 87° East 335 386 25,000  Level Boston Center
Fri 08:48:55 AM 45.5594 -70.3711 88° East 330 380 25,000  Level Boston Center
Fri 08:49:55 AM 45.5633 -70.2378 89° East 330 380 25,000  Level Boston Center
Fri 08:50:55 AM 45.5647 -70.1072 88° East 330 380 25,000  Level Boston Center
Fri 08:51:55 AM 45.5683 -69.9736 89° East 330 380 25,000  Level Boston Center
Fri 08:52:55 AM 45.5697 -69.8431 89° East 330 380 25,000  Level Boston Center
Fri 08:53:55 AM 45.5708 -69.7097 87° East 330 380 25,000  Level Boston Center
Fri 08:54:55 AM 45.5758 -69.5758 90° East 330 380 25,000  Level Boston Center
Fri 08:55:55 AM 45.5764 -69.4306 88° East 330 380 25,000  Level Boston Center
Fri 08:56:55 AM 45.5792 -69.2969 88° East 330 380 25,000  Level Boston Center
Fri 08:57:55 AM 45.5817 -69.1664 90° East 330 380 25,000  Level Boston Center
Fri 08:58:55 AM 45.5822 -69.0358 89° East 330 380 25,000  Level Boston Center
Fri 08:59:55 AM 45.5844 -68.9022 90° East 330 380 25,000  Level Boston Center
Fri 09:00:55 AM 45.5844 -68.7686 90° East 330 380 25,000  Level Boston Center
Fri 09:01:55 AM 45.5844 -68.6381 88° East 330 380 25,000  Level Boston Center
Fri 09:02:55 AM 45.5883 -68.5044 77° East 330 380 25,000  Level Boston Center
Fri 09:03:55 AM 45.6108 -68.3692 77° East 330 380 25,000  Level Boston Center
Fri 09:04:55 AM 45.6311 -68.2403 77° East 335 386 25,000  Level Boston Center
Fri 09:05:55 AM 45.6533 -68.1047 78° East 341 392 25,000  Level Boston Center
Fri 09:06:55 AM 45.6731 -67.9667 78° East 341 392 25,000  Level Boston Center
Fri 09:07:55 AM 45.6928 -67.8314 79° East 341 392 25,000  Level Boston Center
Fri 09:09:13 AM 45.7167 -67.6500 80° East 350 403 25,000  Level Moncton Center
Fri 09:10:13 AM 45.7333 -67.5167 81° East 350 403 25,000  Level Moncton Center
Fri 09:11:13 AM 45.7500 -67.3667 90° East 350 403 25,000  Level Moncton Center
Fri 09:12:13 AM 45.7500 -67.2500 72° East 350 403 25,000  Level Moncton Center
Fri 09:13:13 AM 45.7833 -67.1000 80° East 350 403 25,000  Level Moncton Center
Fri 09:14:13 AM 45.8000 -66.9667 78° East 350 403 25,000  Level Moncton Center
Fri 09:15:13 AM 45.8167 -66.8500 81° East 350 403 25,000  Level Moncton Center
Fri 09:16:13 AM 45.8333 -66.7000 80° East 350 403 25,000  Level Moncton Center
Fri 09:17:13 AM 45.8500 -66.5667 81° East 350 403 25,000  Level Moncton Center
Fri 09:18:13 AM 45.8667 -66.4167 68° East 350 403 25,000  Level Moncton Center
Fri 09:19:13 AM 45.9000 -66.3000 72° East 350 403 25,000  Level Moncton Center
Fri 09:20:13 AM 45.9333 -66.1500 80° East 350 403 25,000  Level Moncton Center
Fri 09:21:13 AM 45.9500 -66.0167 80° East 350 403 25,000  Level Moncton Center
Fri 09:22:13 AM 45.9667 -65.8833 80° East 350 403 25,000  Level Moncton Center
Fri 09:23:13 AM 45.9833 -65.7500 72° East 350 403 25,000  Level Moncton Center
Fri 09:24:13 AM 46.0167 -65.6000 80° East 350 403 25,000  Level Moncton Center
Fri 09:26:13 AM 46.0500 -65.3333 80° East 360 414 25,000  Level Moncton Center
Fri 09:27:13 AM 46.0667 -65.2000 72° East 360 414 25,000 -150 Level Moncton Center
Fri 09:28:13 AM 46.1000 -65.0500 64° Northeast 360 414 24,700 -900 Descending Moncton Center
Fri 09:29:13 AM 46.1500 -64.9000 70° East 370 426 23,200 -1,550 Descending Moncton Center
Fri 09:30:13 AM 46.1833 -64.7667 81° East 370 426 21,600 -1,500 Descending Moncton Center
Fri 09:31:13 AM 46.2000 -64.6167 68° East 370 426 20,200 -1,450 Descending Moncton Center
Fri 09:32:13 AM 46.2333 -64.5000 75° East 360 414 18,700 -1,400 Descending Moncton Center
Fri 09:33:13 AM 46.2667 -64.3167 78° East 370 426 17,400 -1,400 Descending Moncton Center
Fri 09:34:13 AM 46.2833 -64.2000 74° East 370 426 15,900 -1,500 Descending Moncton Center
Fri 09:35:13 AM 46.3167 -64.0333 67° East 370 426 14,400 -1,500 Descending Moncton Center
Fri 09:36:13 AM 46.3500 -63.9167 72° East 360 414 12,900 -1,500 Descending Moncton Center
Fri 09:37:13 AM 46.3833 -63.7667 90° East 350 403 11,400 -1,600 Descending Moncton Center
Fri 09:38:13 AM 46.3833 -63.6500 100° East 320 368 9,700 -1,750 Descending Moncton Center
Fri 09:39:13 AM 46.3667 -63.5167 90° East 290 334 7,900 -1,700 Descending Moncton Center
Fri 09:40:13 AM 46.3667 -63.4333 90° East 270 311 6,300 -1,500 Descending Moncton Center
Fri 09:41:13 AM 46.3667 -63.3333 90° East 270 311 4,900 -1,600 Descending Moncton Center
Fri 09:42:13 AM 46.3667 -63.2167 90° East 260 299 3,100 -1,450 Descending Moncton Center
Fri 09:43:13 AM 46.3667 -63.1333 134° Southeast 230 265 2,000 -950 Descending Moncton Center
Fri 09:44:13 AM 46.3333 -63.0833 215° Southwest 160 184 1,200 -750 Descending Moncton Center
Fri 09:45:13 AM 46.3000 -63.1167 180° South 130 150 500 -400 Descending Moncton Center
Fri 09:46:13 AM 46.2667 -63.1167 180° South 120 138 400 -100 Descending Moncton Center

Login

Don't have an account? Register now (free) for customized features, flight alerts, and more!